Time;durP1;ratioP1;P1;durP2;ratioP2;P2;SDS_P1;SDS_P2;PMS_P1;PMS_P2;Temp;Humidity;BMP_temperature;BMP_pressure;BME280_temperature;BME280_humidity;BME280_pressure;Samples;Min_cycle;Max_cycle;Signal;HPM_P1;HPM_P2
2024/01/13 00:01:57;;;;;;;28.80;15.00;;;;;;;-0.97;97.14;100278.74;130487;1259;106961;-74
2024/01/13 00:05:03;;;;;;;23.10;12.30;;;;;;;-1.00;97.15;100283.77;130475;1256;106362;-73
2024/01/13 00:08:09;;;;;;;25.50;13.70;;;;;;;-1.03;97.20;100285.34;130523;1259;107864;-73
2024/01/13 00:11:15;;;;;;;22.50;12.50;;;;;;;-1.04;97.20;100283.64;130463;1259;108572;-74
2024/01/13 00:14:20;;;;;;;24.90;12.50;;;;;;;-1.06;97.14;100272.04;130437;1268;108528;-74
2024/01/13 00:17:25;;;;;;;22.40;12.20;;;;;;;-1.04;97.06;100273.88;130434;1256;108658;-73
2024/01/13 00:20:31;;;;;;;19.00;11.00;;;;;;;-1.04;96.97;100270.18;130486;1258;105745;-73
2024/01/13 00:23:37;;;;;;;22.10;11.00;;;;;;;-1.02;96.76;100268.50;130553;1258;108764;-74
2024/01/13 00:26:43;;;;;;;21.80;11.50;;;;;;;-1.00;96.48;100262.30;130494;1256;108575;-74
2024/01/13 00:29:48;;;;;;;27.00;12.50;;;;;;;-0.98;96.21;100259.43;130457;1256;108493;-75
2024/01/13 00:32:54;;;;;;;17.40;8.80;;;;;;;-0.98;96.01;100257.80;130490;1256;108738;-74
2024/01/13 00:35:59;;;;;;;16.70;9.00;;;;;;;-0.94;95.74;100242.81;130501;1259;107740;-74
2024/01/13 00:39:05;;;;;;;32.10;14.70;;;;;;;-0.90;95.48;100236.45;130547;1260;107626;-74
2024/01/13 00:42:11;;;;;;;19.00;9.80;;;;;;;-0.84;95.24;100228.98;130498;1259;108599;-74
2024/01/13 00:45:17;;;;;;;26.80;13.20;;;;;;;-0.80;95.00;100228.77;130469;1257;108696;-74
2024/01/13 00:48:22;;;;;;;22.10;11.30;;;;;;;-0.80;94.69;100231.55;130509;1259;107152;-74
2024/01/13 00:51:28;;;;;;;22.10;10.50;;;;;;;-0.79;94.62;100230.29;130455;1259;108826;-73
2024/01/13 00:54:34;;;;;;;27.40;12.70;;;;;;;-0.70;94.80;100236.48;130511;1259;107513;-74
2024/01/13 00:57:40;;;;;;;24.30;12.00;;;;;;;-0.62;94.51;100232.52;130477;1259;106477;-74
2024/01/13 01:00:45;;;;;;;34.80;15.30;;;;;;;-0.58;93.95;100230.75;130490;1259;107779;-74
2024/01/13 01:03:51;;;;;;;17.10;9.20;;;;;;;-0.56;93.95;100221.58;130497;1259;107554;-74
2024/01/13 01:06:56;;;;;;;19.20;9.20;;;;;;;-0.57;93.86;100227.54;130512;1259;107478;-74
2024/01/13 01:10:02;;;;;;;44.70;20.20;;;;;;;-0.62;93.79;100221.34;130450;1259;107595;-74
2024/01/13 01:13:08;;;;;;;15.40;8.40;;;;;;;-0.62;93.83;100226.61;130437;1259;106850;-74
2024/01/13 01:16:13;;;;;;;16.20;8.20;;;;;;;-0.63;93.70;100226.50;130482;1258;107653;-74
2024/01/13 01:19:19;;;;;;;58.40;21.80;;;;;;;-0.67;93.59;100226.36;130496;1257;107376;-74
2024/01/13 01:22:25;;;;;;;19.80;10.20;;;;;;;-0.68;93.84;100223.61;130551;1260;106671;-74
2024/01/13 01:25:30;;;;;;;92.00;36.10;;;;;;;-0.65;93.85;100223.77;130455;1259;108573;-74
2024/01/13 01:28:36;;;;;;;48.90;20.70;;;;;;;-0.64;93.90;100218.13;130472;1259;107416;-74
2024/01/13 01:31:42;;;;;;;181.20;53.90;;;;;;;-0.62;94.13;100217.66;130475;1259;106381;-73
2024/01/13 01:34:47;;;;;;;82.00;31.40;;;;;;;-0.59;93.74;100221.21;130459;1259;106461;-74
2024/01/13 01:37:53;;;;;;;18.30;8.80;;;;;;;-0.55;93.88;100214.87;130528;1259;106461;-74
2024/01/13 01:40:58;;;;;;;41.30;17.00;;;;;;;-0.52;93.55;100212.62;130462;1259;107616;-74
2024/01/13 01:44:04;;;;;;;154.60;48.30;;;;;;;-0.53;93.55;100211.24;130509;1259;105919;-74
2024/01/13 01:47:11;;;;;;;35.80;15.50;;;;;;;-0.54;93.21;100211.33;130498;1255;107594;-73
2024/01/13 01:50:17;;;;;;;68.00;25.40;;;;;;;-0.58;93.49;100214.87;130495;1258;106180;-74
2024/01/13 01:53:23;;;;;;;49.50;18.20;;;;;;;-0.59;93.55;100203.56;130559;1257;106310;-74
2024/01/13 01:56:34;;;;;;;121.50;48.70;;;;;;;-0.64;93.43;100208.19;130431;1259;107633;-74
2024/01/13 01:59:40;;;;;;;37.20;17.20;;;;;;;-0.62;93.49;100197.77;130529;1257;106189;-73
2024/01/13 02:02:46;;;;;;;82.70;35.40;;;;;;;-0.61;93.48;100203.16;130464;1256;106277;-74
2024/01/13 02:05:52;;;;;;;54.50;28.10;;;;;;;-0.59;93.53;100200.27;130464;1259;106404;-73
2024/01/13 02:08:58;;;;;;;131.00;61.20;;;;;;;-0.54;93.42;100192.48;130543;1259;106653;-74
2024/01/13 02:12:03;;;;;;;102.90;45.80;;;;;;;-0.57;93.11;100188.60;130483;1260;107681;-75
2024/01/13 02:15:10;;;;;;;59.70;31.30;;;;;;;-0.57;93.65;100183.86;130430;1259;107635;-75
2024/01/13 02:18:16;;;;;;;43.20;25.60;;;;;;;-0.52;93.45;100179.59;130457;1257;108514;-73
2024/01/13 02:21:21;;;;;;;58.10;21.30;;;;;;;-0.50;93.34;100174.59;130525;1259;107669;-74
2024/01/13 02:24:27;;;;;;;75.90;26.10;;;;;;;-0.52;93.18;100170.70;130554;1259;105639;-74
2024/01/13 02:27:33;;;;;;;87.50;30.20;;;;;;;-0.53;93.14;100163.55;130470;1259;106156;-73
2024/01/13 02:30:38;;;;;;;131.00;44.40;;;;;;;-0.49;93.41;100156.55;130480;1257;107200;-74
2024/01/13 02:33:44;;;;;;;32.50;14.70;;;;;;;-0.49;92.99;100162.80;130440;1259;108535;-75
2024/01/13 02:36:49;;;;;;;149.30;48.50;;;;;;;-0.58;93.10;100154.73;130466;1258;107503;-74
2024/01/13 02:39:55;;;;;;;75.20;27.90;;;;;;;-0.56;93.18;100152.05;130509;1259;105995;-74
2024/01/13 02:43:01;;;;;;;128.20;44.00;;;;;;;-0.48;93.43;100148.60;130435;1259;108591;-74
2024/01/13 02:46:06;;;;;;;30.70;14.70;;;;;;;-0.39;93.28;100144.42;130432;1259;108720;-74
2024/01/13 02:49:13;;;;;;;36.70;16.40;;;;;;;-0.35;92.79;100149.86;130499;1257;108398;-73
2024/01/13 02:52:18;;;;;;;62.30;28.00;;;;;;;-0.43;92.57;100147.13;130559;1259;107680;-73
2024/01/13 02:55:24;;;;;;;35.40;16.00;;;;;;;-0.42;93.12;100143.02;130488;1259;106146;-73
2024/01/13 02:58:29;;;;;;;17.60;9.70;;;;;;;-0.44;92.62;100142.96;130506;1259;106321;-74
2024/01/13 03:01:35;;;;;;;54.30;24.40;;;;;;;-0.53;92.57;100144.19;130475;1260;108337;-75
2024/01/13 03:04:41;;;;;;;90.20;35.50;;;;;;;-0.52;92.80;100139.39;130442;1258;108621;-75
2024/01/13 03:07:46;;;;;;;75.90;31.70;;;;;;;-0.51;92.64;100136.90;130554;1255;108790;-74
2024/01/13 03:10:52;;;;;;;96.30;37.50;;;;;;;-0.46;92.75;100132.77;130497;1259;108678;-74
2024/01/13 03:13:58;;;;;;;21.90;11.60;;;;;;;-0.39;92.91;100131.88;130480;1258;107033;-74
2024/01/13 03:17:04;;;;;;;19.90;11.00;;;;;;;-0.41;92.03;100138.44;130469;1258;108533;-74
2024/01/13 03:20:12;;;;;;;16.10;9.60;;;;;;;-0.51;92.17;100144.08;130466;1257;108734;-74
2024/01/13 03:23:18;;;;;;;19.30;12.20;;;;;;;-0.61;92.41;100141.45;130535;1259;108761;-72
2024/01/13 03:26:23;;;;;;;22.00;11.10;;;;;;;-0.60;92.67;100137.77;130490;1259;108642;-73
2024/01/13 03:29:29;;;;;;;15.80;10.00;;;;;;;-0.57;92.51;100133.54;130481;1257;106720;-74
2024/01/13 03:32:34;;;;;;;17.30;10.30;;;;;;;-0.52;92.53;100137.66;130488;1260;107676;-73
2024/01/13 03:35:40;;;;;;;16.30;9.60;;;;;;;-0.48;92.61;100133.38;130327;1257;239290;-73
2024/01/13 03:38:45;;;;;;;16.70;9.00;;;;;;;-0.45;92.07;100124.64;130529;1259;108800;-73
2024/01/13 03:41:51;;;;;;;16.50;9.40;;;;;;;-0.52;92.10;100124.58;130488;1259;108324;-73
2024/01/13 03:44:56;;;;;;;15.90;9.10;;;;;;;-0.51;92.20;100127.98;130497;1259;108560;-74
2024/01/13 03:48:02;;;;;;;14.20;8.50;;;;;;;-0.51;92.09;100139.52;130470;1259;108488;-74
2024/01/13 03:51:08;;;;;;;15.70;9.20;;;;;;;-0.48;92.22;100132.02;130466;1258;105747;-72
2024/01/13 03:54:14;;;;;;;18.50;11.40;;;;;;;-0.44;92.42;100126.20;130523;1259;108723;-74
2024/01/13 03:57:19;;;;;;;90.50;31.70;;;;;;;-0.44;91.96;100118.67;130500;1258;106273;-74
2024/01/13 04:00:25;;;;;;;28.40;13.20;;;;;;;-0.52;92.19;100117.90;130483;1258;109381;-71
2024/01/13 04:03:30;;;;;;;67.40;23.30;;;;;;;-0.54;92.31;100101.96;130499;1259;106688;-74
2024/01/13 04:06:41;;;;;;;174.60;47.60;;;;;;;-0.52;92.54;100092.90;130474;1259;107619;-74
2024/01/13 04:09:46;;;;;;;237.70;62.60;;;;;;;-0.46;92.44;100092.73;130520;1257;109042;-74
2024/01/13 04:12:52;;;;;;;68.70;22.70;;;;;;;-0.43;92.38;100102.20;130506;1258;108683;-73
2024/01/13 04:15:57;;;;;;;33.40;14.50;;;;;;;-0.42;92.56;100096.33;130487;1259;108704;-74
2024/01/13 04:19:03;;;;;;;126.20;42.50;;;;;;;-0.44;92.67;100103.27;130454;1259;108284;-74
2024/01/13 04:22:08;;;;;;;224.80;71.60;;;;;;;-0.46;92.79;100101.67;130429;1257;108803;-74
2024/01/13 04:25:14;;;;;;;128.70;43.30;;;;;;;-0.47;93.30;100103.64;130537;1259;108887;-73
2024/01/13 04:28:20;;;;;;;34.60;16.30;;;;;;;-0.50;93.54;100105.55;130478;1259;108655;-74
2024/01/13 04:31:25;;;;;;;36.20;18.10;;;;;;;-0.48;93.49;100109.63;130494;1267;109068;-74
2024/01/13 04:34:31;;;;;;;44.60;19.60;;;;;;;-0.44;93.48;100108.52;130475;1275;108373;-77
2024/01/13 04:37:37;;;;;;;73.60;38.20;;;;;;;-0.42;93.37;100110.90;130535;1259;108758;-74
2024/01/13 04:40:42;;;;;;;19.30;11.50;;;;;;;-0.47;93.48;100110.78;130493;1259;108205;-73
2024/01/13 04:43:48;;;;;;;72.30;37.50;;;;;;;-0.56;93.65;100119.72;130498;1257;105782;-74
2024/01/13 04:46:53;;;;;;;33.30;21.30;;;;;;;-0.56;93.84;100119.55;130553;1261;108685;-74
2024/01/13 04:49:59;;;;;;;16.50;9.80;;;;;;;-0.53;94.13;100121.31;130500;1257;106317;-74
2024/01/13 04:53:05;;;;;;;20.40;10.60;;;;;;;-0.52;94.16;100119.83;130544;1259;107879;-73
2024/01/13 04:56:11;;;;;;;16.70;9.90;;;;;;;-0.50;95.27;100119.39;130490;1258;108440;-74
2024/01/13 04:59:17;;;;;;;19.10;10.60;;;;;;;-0.55;95.40;100127.18;130463;1257;107672;-74
2024/01/13 05:02:22;;;;;;;17.80;10.60;;;;;;;-0.58;95.22;100124.55;130454;1259;108485;-73
2024/01/13 05:05:28;;;;;;;21.60;10.70;;;;;;;-0.63;95.29;100123.77;130489;1259;108494;-73
2024/01/13 05:08:34;;;;;;;18.20;9.70;;;;;;;-0.65;95.03;100122.48;130565;1260;107616;-73
2024/01/13 05:11:40;;;;;;;16.20;9.20;;;;;;;-0.59;95.19;100120.55;130517;1259;106620;-74
2024/01/13 05:14:47;;;;;;;17.10;9.90;;;;;;;-0.52;95.17;100114.58;130531;1259;105829;-74
2024/01/13 05:17:53;;;;;;;17.60;10.40;;;;;;;-0.48;94.95;100116.45;130510;1254;108531;-74
2024/01/13 05:20:59;;;;;;;19.60;11.10;;;;;;;-0.46;94.89;100113.69;130739;1257;108545;-75
2024/01/13 05:24:05;;;;;;;18.50;10.80;;;;;;;-0.46;94.90;100112.51;130564;1260;108753;-73
2024/01/13 05:27:11;;;;;;;18.80;10.80;;;;;;;-0.50;94.98;100110.27;130525;1265;107448;-75
2024/01/13 05:30:17;;;;;;;19.40;10.90;;;;;;;-0.50;95.08;100116.03;130494;1260;106568;-73
2024/01/13 05:33:23;;;;;;;17.10;10.20;;;;;;;-0.49;94.97;100116.35;130660;1259;107508;-74
2024/01/13 05:36:28;;;;;;;17.60;10.30;;;;;;;-0.45;95.17;100108.78;130534;1260;107819;-73
2024/01/13 05:39:34;;;;;;;19.50;11.10;;;;;;;-0.46;94.84;100112.84;130687;1258;107587;-74
2024/01/13 05:42:40;;;;;;;20.00;10.80;;;;;;;-0.48;95.02;100115.38;130538;1259;108463;-75
2024/01/13 05:45:46;;;;;;;20.60;11.30;;;;;;;-0.50;94.98;100111.70;130624;1268;107642;-74
2024/01/13 05:48:52;;;;;;;21.10;10.80;;;;;;;-0.52;94.97;100118.60;130560;1257;107701;-74
2024/01/13 05:51:57;;;;;;;20.00;10.10;;;;;;;-0.55;94.98;100115.63;130470;1267;108768;-74
2024/01/13 05:55:04;;;;;;;16.90;9.70;;;;;;;-0.56;95.07;100113.61;130620;1260;106917;-75
2024/01/13 05:58:09;;;;;;;16.10;9.90;;;;;;;-0.58;95.31;100112.83;130545;1260;106930;-73
2024/01/13 06:01:15;;;;;;;19.20;10.70;;;;;;;-0.57;95.16;100102.44;130511;1258;107572;-74
2024/01/13 06:04:20;;;;;;;20.30;10.90;;;;;;;-0.52;94.95;100101.51;130617;1260;109120;-74
2024/01/13 06:07:26;;;;;;;19.50;10.10;;;;;;;-0.56;94.81;100105.02;130570;1259;107880;-73
2024/01/13 06:10:34;;;;;;;132.00;44.20;;;;;;;-0.58;94.90;100104.64;130754;1260;108659;-74
2024/01/13 06:13:42;;;;;;;389.50;122.20;;;;;;;-0.55;94.94;100103.95;130597;1254;107195;-75
2024/01/13 06:16:48;;;;;;;51.10;21.20;;;;;;;-0.49;94.83;100103.95;130492;1259;107770;-74
2024/01/13 06:19:53;;;;;;;40.40;17.40;;;;;;;-0.46;94.70;100106.35;130521;1268;108382;-74
2024/01/13 06:22:59;;;;;;;222.10;81.80;;;;;;;-0.43;94.62;100100.63;130545;1261;108585;-74
2024/01/13 06:26:05;;;;;;;150.70;46.90;;;;;;;-0.46;94.45;100105.33;130490;1260;108634;-73
2024/01/13 06:29:11;;;;;;;254.30;105.30;;;;;;;-0.55;94.39;100109.49;130460;1258;107803;-74
2024/01/13 06:32:16;;;;;;;174.40;83.70;;;;;;;-0.55;94.66;100106.91;130469;1266;108371;-75
2024/01/13 06:35:22;;;;;;;93.80;45.60;;;;;;;-0.50;94.56;100106.44;130505;1261;107677;-73
2024/01/13 06:38:27;;;;;;;70.80;38.40;;;;;;;-0.47;94.37;100102.95;130509;1269;107418;-74
2024/01/13 06:41:33;;;;;;;50.90;27.70;;;;;;;-0.43;94.27;100108.82;130484;1260;107127;-74
2024/01/13 06:44:39;;;;;;;38.30;17.70;;;;;;;-0.42;94.15;100107.35;130479;1258;108134;-74
2024/01/13 06:47:46;;;;;;;41.00;17.90;;;;;;;-0.44;93.97;100108.87;130564;1264;107678;-74
2024/01/13 06:50:52;;;;;;;23.40;12.00;;;;;;;-0.50;93.90;100110.65;130421;1257;108824;-74
2024/01/13 06:53:57;;;;;;;48.60;21.10;;;;;;;-0.49;94.09;100109.55;130519;1270;106768;-75
2024/01/13 06:57:03;;;;;;;18.00;9.80;;;;;;;-0.42;94.07;100111.39;130522;1262;108620;-75
2024/01/13 07:00:11;;;;;;;66.20;30.10;;;;;;;-0.42;93.59;100106.15;130916;1258;108885;-73
2024/01/13 07:03:18;;;;;;;87.70;38.60;;;;;;;-0.36;93.80;100114.93;130617;1267;107705;-73
2024/01/13 07:06:23;;;;;;;74.20;36.90;;;;;;;-0.33;93.56;100112.30;130501;1268;106431;-73
2024/01/13 07:09:29;;;;;;;40.60;19.80;;;;;;;-0.34;93.34;100112.34;130599;1259;107486;-73
2024/01/13 07:12:35;;;;;;;67.10;32.70;;;;;;;-0.37;93.40;100114.48;130466;1259;108607;-72
2024/01/13 07:15:40;;;;;;;23.90;13.40;;;;;;;-0.41;93.58;100113.42;130461;1270;106555;-73
2024/01/13 07:18:46;;;;;;;27.80;14.70;;;;;;;-0.41;93.55;100114.83;130483;1262;108788;-74
2024/01/13 07:21:51;;;;;;;18.50;10.10;;;;;;;-0.40;93.72;100116.70;130460;1260;106561;-74
2024/01/13 07:24:57;;;;;;;21.80;11.80;;;;;;;-0.33;93.74;100114.61;130530;1259;107376;-74
2024/01/13 07:28:02;;;;;;;29.10;15.70;;;;;;;-0.35;93.40;100114.52;130456;1257;106861;-75
2024/01/13 07:31:08;;;;;;;41.60;22.40;;;;;;;-0.34;93.53;100110.08;130453;1260;107664;-74
2024/01/13 07:34:14;;;;;;;110.50;62.90;;;;;;;-0.33;93.44;100111.63;130569;1259;106761;-74
2024/01/13 07:37:20;;;;;;;22.60;12.90;;;;;;;-0.35;93.57;100116.77;130508;1260;108369;-74
2024/01/13 07:40:33;;;;;;;95.80;32.50;;;;;;;-0.40;93.56;100120.73;130547;1259;107627;-73
2024/01/13 07:43:38;;;;;;;28.00;13.70;;;;;;;-0.41;93.60;100126.03;130419;1258;107893;-74
2024/01/13 07:46:44;;;;;;;92.00;31.90;;;;;;;-0.42;93.54;100127.27;130589;1260;108653;-74
2024/01/13 07:49:50;;;;;;;171.90;59.40;;;;;;;-0.34;93.53;100124.45;130462;1270;107734;-74
2024/01/13 07:52:55;;;;;;;241.60;100.50;;;;;;;-0.27;93.56;100122.48;130472;1258;106453;-74
2024/01/13 07:56:01;;;;;;;51.60;22.00;;;;;;;-0.23;93.41;100117.16;130606;1260;107771;-75
2024/01/13 07:59:07;;;;;;;46.40;20.40;;;;;;;-0.27;93.05;100113.55;130528;1258;107847;-75
2024/01/13 08:02:12;;;;;;;24.00;12.60;;;;;;;-0.33;92.95;100114.59;130473;1267;107610;-75
2024/01/13 08:05:18;;;;;;;58.00;33.80;;;;;;;-0.46;93.05;100110.22;131093;1268;107775;-75
2024/01/13 08:08:23;;;;;;;36.00;19.00;;;;;;;-0.48;93.40;100105.81;130503;1258;106285;-76
2024/01/13 08:11:29;;;;;;;59.40;36.50;;;;;;;-0.43;93.26;100104.48;130519;1256;108566;-75
2024/01/13 08:14:34;;;;;;;23.10;12.40;;;;;;;-0.33;93.48;100095.17;130513;1258;106525;-74
2024/01/13 08:17:40;;;;;;;60.10;33.00;;;;;;;-0.34;92.86;100095.23;130461;1260;107737;-75
2024/01/13 08:20:45;;;;;;;26.10;13.80;;;;;;;-0.30;92.99;100101.11;130522;1257;107612;-75
2024/01/13 08:23:51;;;;;;;50.80;36.00;;;;;;;-0.34;92.88;100092.45;130558;1255;107806;-75
2024/01/13 08:26:56;;;;;;;24.80;15.00;;;;;;;-0.32;93.21;100095.29;130536;1261;107055;-73
2024/01/13 08:30:02;;;;;;;27.50;14.20;;;;;;;-0.35;93.05;100093.02;130524;1257;106403;-74
2024/01/13 08:33:08;;;;;;;26.60;15.10;;;;;;;-0.33;93.08;100100.97;130551;1254;107619;-73
2024/01/13 08:36:13;;;;;;;21.90;12.90;;;;;;;-0.26;93.15;100101.27;130642;1255;107466;-75
2024/01/13 08:39:19;;;;;;;19.60;12.10;;;;;;;-0.22;92.84;100105.72;130565;1260;106423;-75
2024/01/13 08:42:25;;;;;;;23.50;13.90;;;;;;;-0.23;92.76;100104.41;130494;1256;108181;-75
2024/01/13 08:45:31;;;;;;;23.10;14.10;;;;;;;-0.21;92.71;100113.34;130572;1257;106987;-75
2024/01/13 08:48:36;;;;;;;23.00;13.80;;;;;;;-0.19;92.69;100112.73;130503;1260;108520;-75
2024/01/13 08:51:42;;;;;;;23.60;12.00;;;;;;;-0.26;92.36;100113.13;130519;1270;107579;-75
2024/01/13 08:54:47;;;;;;;25.50;15.30;;;;;;;-0.40;92.52;100115.30;130510;1261;108321;-75
2024/01/13 08:57:53;;;;;;;22.80;12.40;;;;;;;-0.44;93.01;100112.71;130302;1257;107037;-75
2024/01/13 09:00:59;;;;;;;22.80;11.80;;;;;;;-0.43;93.10;100114.43;130534;1259;108478;-74
2024/01/13 09:04:05;;;;;;;20.40;12.50;;;;;;;-0.35;93.17;100116.98;130603;1260;106712;-76
2024/01/13 09:07:10;;;;;;;24.10;14.30;;;;;;;-0.28;93.13;100105.40;130448;1258;107671;-75
2024/01/13 09:10:16;;;;;;;70.80;32.00;;;;;;;-0.20;93.08;100104.41;130703;1258;108343;-74
2024/01/13 09:13:22;;;;;;;84.60;38.40;;;;;;;-0.15;92.76;100097.80;130491;1260;107530;-74
2024/01/13 09:16:27;;;;;;;354.50;152.10;;;;;;;-0.18;92.74;100100.44;130469;1261;108462;-75
2024/01/13 09:19:34;;;;;;;39.40;20.70;;;;;;;-0.13;92.73;100102.96;130453;1261;107466;-75
2024/01/13 09:22:40;;;;;;;82.60;33.60;;;;;;;-0.21;92.62;100095.67;130492;1270;108689;-75
2024/01/13 09:25:45;;;;;;;109.60;51.10;;;;;;;-0.14;92.84;100090.05;130514;1261;106297;-74
2024/01/13 09:28:51;;;;;;;363.70;175.10;;;;;;;-0.03;93.04;100077.00;130462;1270;106554;-75
2024/01/13 09:31:56;;;;;;;99.50;43.60;;;;;;;0.09;92.88;100070.34;130472;1260;107687;-74
2024/01/13 09:35:02;;;;;;;148.70;64.30;;;;;;;0.10;92.52;100065.05;130498;1269;108507;-74
2024/01/13 09:38:08;;;;;;;129.60;54.20;;;;;;;0.13;92.43;100052.95;130494;1259;106559;-74
2024/01/13 09:41:13;;;;;;;152.50;65.20;;;;;;;0.12;92.44;100050.75;130570;1260;108705;-75
2024/01/13 09:44:22;;;;;;;82.30;37.00;;;;;;;0.09;92.11;100043.27;130641;1260;108396;-74
2024/01/13 09:47:28;;;;;;;93.70;42.80;;;;;;;0.03;91.97;100043.45;130579;1260;108772;-74
2024/01/13 09:50:34;;;;;;;43.60;22.20;;;;;;;0.02;92.33;100038.05;130480;1259;107280;-74
2024/01/13 09:53:51;;;;;;;29.70;14.90;;;;;;;0.13;92.35;100040.02;130544;1259;107062;-74
2024/01/13 09:56:57;;;;;;;37.30;21.80;;;;;;;0.18;92.31;100029.05;130490;1260;107197;-74
2024/01/13 10:00:04;;;;;;;46.60;26.60;;;;;;;0.29;92.57;100021.75;130514;1257;106633;-75
2024/01/13 10:03:10;;;;;;;35.10;21.50;;;;;;;0.40;92.26;100014.80;130484;1255;106649;-76
2024/01/13 10:06:16;;;;;;;56.40;36.50;;;;;;;0.39;92.15;100013.26;130514;1257;106538;-74
2024/01/13 10:09:22;;;;;;;31.90;17.40;;;;;;;0.43;92.19;100013.42;130604;1258;108459;-73
2024/01/13 10:12:28;;;;;;;32.10;18.70;;;;;;;0.40;92.08;100004.47;130519;1266;106652;-73
2024/01/13 10:15:35;;;;;;;36.10;20.30;;;;;;;0.40;92.28;99997.63;130515;1260;107653;-74
2024/01/13 10:18:41;;;;;;;73.40;33.10;;;;;;;0.44;92.35;99990.73;130474;1257;108465;-73
2024/01/13 10:21:47;;;;;;;261.20;114.80;;;;;;;0.49;92.41;99990.98;130668;1261;108696;-74
2024/01/13 10:24:53;;;;;;;118.80;54.70;;;;;;;0.56;92.28;99982.27;130588;1258;107617;-74
2024/01/13 10:27:59;;;;;;;117.70;55.10;;;;;;;0.70;92.40;99976.55;130454;1258;106459;-74
2024/01/13 10:31:05;;;;;;;107.50;48.80;;;;;;;0.78;92.09;99975.98;130499;1257;107746;-75
2024/01/13 10:34:12;;;;;;;154.90;73.30;;;;;;;0.89;92.13;99969.75;130497;1257;108637;-74
2024/01/13 10:37:18;;;;;;;201.50;100.00;;;;;;;1.01;92.11;99958.79;130533;1258;108533;-75
2024/01/13 10:40:23;;;;;;;309.40;160.70;;;;;;;1.06;91.89;99952.83;130573;1260;108638;-75
2024/01/13 10:43:29;;;;;;;246.70;113.70;;;;;;;1.11;91.98;99951.09;130501;1260;107080;-75
2024/01/13 10:46:39;;;;;;;124.00;58.40;;;;;;;1.14;91.62;99937.58;130618;1267;108681;-75
2024/01/13 10:49:47;;;;;;;67.30;33.00;;;;;;;1.11;91.60;99928.72;130581;1260;108279;-75
2024/01/13 10:53:03;;;;;;;74.00;38.00;;;;;;;1.13;91.73;99915.77;130610;1258;106469;-75
2024/01/13 10:56:09;;;;;;;56.40;29.40;;;;;;;1.18;91.78;99899.84;130611;1256;106430;-75
2024/01/13 10:59:16;;;;;;;70.90;40.80;;;;;;;1.22;91.72;99890.52;130765;1259;106998;-75
2024/01/13 11:02:23;;;;;;;52.20;29.20;;;;;;;1.25;91.40;99885.92;130545;1257;107581;-75
2024/01/13 11:05:29;;;;;;;59.40;33.50;;;;;;;1.22;91.17;99879.65;130556;1256;107866;-74
2024/01/13 11:08:36;;;;;;;335.90;190.50;;;;;;;1.19;91.28;99877.90;130618;1260;107599;-74
2024/01/13 11:11:47;;;;;;;173.20;69.20;;;;;;;1.16;91.13;99877.19;130514;1257;108933;-75
2024/01/13 11:15:03;;;;;;;75.40;39.00;;;;;;;1.08;90.73;99879.87;130492;1260;107754;-74
2024/01/13 11:18:12;;;;;;;56.40;32.60;;;;;;;0.97;90.85;99878.31;130493;1259;106243;-75
2024/01/13 11:21:19;;;;;;;28.30;15.80;;;;;;;0.96;91.17;99868.75;130485;1258;106728;-75
2024/01/13 11:24:27;;;;;;;26.10;14.70;;;;;;;0.93;90.71;99864.39;130643;1260;107907;-75
2024/01/13 11:27:33;;;;;;;47.20;31.00;;;;;;;0.91;90.76;99861.38;130505;1260;108639;-75
2024/01/13 11:30:39;;;;;;;38.50;23.50;;;;;;;0.93;90.72;99856.36;130657;1259;107351;-75
2024/01/13 11:33:46;;;;;;;32.40;20.10;;;;;;;0.95;90.86;99848.11;130561;1261;108640;-75
2024/01/13 11:36:52;;;;;;;42.20;26.90;;;;;;;0.98;90.58;99843.21;130533;1267;106240;-77
2024/01/13 11:40:05;;;;;;;50.00;35.10;;;;;;;0.98;90.69;99841.10;130527;1256;108148;-75
2024/01/13 11:43:22;;;;;;;38.80;22.60;;;;;;;0.93;90.34;99834.23;130484;1261;107642;-75
2024/01/13 11:46:28;;;;;;;39.90;21.20;;;;;;;0.79;89.60;99836.10;130888;1256;106821;-75
2024/01/13 11:49:35;;;;;;;153.20;59.00;;;;;;;0.68;90.38;99836.27;130492;1260;108601;-74
2024/01/13 11:52:41;;;;;;;41.80;21.20;;;;;;;0.66;90.28;99836.90;130579;1259;106281;-75
2024/01/13 11:55:47;;;;;;;123.40;64.30;;;;;;;0.66;89.71;99842.86;130552;1260;107748;-75
2024/01/13 11:58:53;;;;;;;113.20;64.70;;;;;;;0.67;89.64;99840.71;130461;1259;108613;-75
2024/01/13 12:01:59;;;;;;;45.50;24.30;;;;;;;0.71;89.27;99831.48;130445;1259;106682;-75
2024/01/13 12:05:07;;;;;;;26.70;14.50;;;;;;;0.80;89.34;99816.58;130488;1259;107759;-76
2024/01/13 12:08:13;;;;;;;29.50;19.20;;;;;;;0.88;89.27;99801.65;130883;1257;106902;-74
2024/01/13 12:11:18;;;;;;;20.20;13.80;;;;;;;0.99;88.99;99791.63;130705;1257;106674;-76
2024/01/13 12:14:28;;;;;;;26.00;15.90;;;;;;;1.05;88.58;99781.09;130518;1260;106630;-73
2024/01/13 12:17:33;;;;;;;251.00;92.80;;;;;;;1.10;88.71;99763.42;130559;1256;107601;-74
2024/01/13 12:20:39;;;;;;;239.90;83.60;;;;;;;1.18;88.59;99750.05;130576;1259;107723;-75
2024/01/13 12:23:45;;;;;;;304.50;98.50;;;;;;;1.26;88.81;99735.38;130510;1257;107632;-75
2024/01/13 12:26:50;;;;;;;507.30;172.70;;;;;;;1.40;88.76;99726.83;130579;1255;107501;-75
2024/01/13 12:29:58;;;;;;;436.80;136.00;;;;;;;1.56;88.70;99726.77;130519;1255;108706;-74
2024/01/13 12:33:05;;;;;;;374.00;119.60;;;;;;;1.73;88.14;99718.21;130571;1255;107746;-74
2024/01/13 12:36:11;;;;;;;632.60;247.20;;;;;;;1.88;87.99;99723.95;130475;1261;108569;-76
2024/01/13 12:39:17;;;;;;;762.40;293.70;;;;;;;2.03;87.92;99722.73;130681;1259;106413;-75
2024/01/13 12:42:22;;;;;;;414.60;134.60;;;;;;;2.06;86.69;99732.34;130525;1255;108708;-74
2024/01/13 12:45:28;;;;;;;214.50;63.40;;;;;;;2.03;86.65;99737.97;130540;1255;108421;-74
2024/01/13 12:48:35;;;;;;;346.40;116.70;;;;;;;2.01;86.98;99725.70;130566;1254;106637;-76
2024/01/13 12:51:43;;;;;;;376.40;123.70;;;;;;;2.02;87.01;99717.50;130541;1257;106776;-75
2024/01/13 12:54:49;;;;;;;330.70;114.00;;;;;;;2.01;86.63;99710.07;130636;1257;107658;-74
2024/01/13 12:57:54;;;;;;;142.10;48.90;;;;;;;1.97;86.89;99702.45;130581;1257;106526;-74
2024/01/13 13:01:00;;;;;;;426.80;171.10;;;;;;;1.94;86.75;99697.73;130505;1257;107753;-74
2024/01/13 13:04:06;;;;;;;439.40;184.10;;;;;;;1.89;86.68;99692.31;130666;1259;108582;-74
2024/01/13 13:07:12;;;;;;;342.40;122.60;;;;;;;1.83;86.76;99687.50;130493;1260;107837;-75
2024/01/13 13:10:18;;;;;;;402.50;137.50;;;;;;;1.77;86.86;99684.23;130578;1259;107703;-75
2024/01/13 13:13:24;;;;;;;251.90;93.80;;;;;;;1.75;87.00;99683.36;130648;1257;108594;-75
2024/01/13 13:16:29;;;;;;;101.10;42.80;;;;;;;1.72;86.63;99682.70;130563;1260;107721;-75
2024/01/13 13:19:35;;;;;;;223.60;91.50;;;;;;;1.69;86.87;99664.11;130491;1261;108142;-75
2024/01/13 13:22:40;;;;;;;426.50;168.60;;;;;;;1.75;87.13;99652.11;130551;1260;108644;-75
2024/01/13 13:25:46;;;;;;;102.00;37.20;;;;;;;1.83;86.96;99648.39;130526;1257;107484;-76
2024/01/13 13:28:51;;;;;;;48.60;19.70;;;;;;;1.89;86.87;99646.36;130650;1257;108021;-75
2024/01/13 13:31:58;;;;;;;30.90;13.10;;;;;;;1.90;86.56;99632.56;130551;1260;108707;-75
2024/01/13 13:35:04;;;;;;;99.90;44.10;;;;;;;1.92;86.39;99634.89;130482;1269;106204;-75
2024/01/13 13:38:10;;;;;;;139.00;60.20;;;;;;;1.91;86.24;99624.64;130578;1259;106408;-76
2024/01/13 13:41:15;;;;;;;170.20;76.50;;;;;;;1.88;86.38;99616.77;130659;1254;107692;-75
2024/01/13 13:44:21;;;;;;;132.70;62.60;;;;;;;1.84;86.04;99606.24;130512;1257;108632;-75
2024/01/13 13:47:26;;;;;;;92.40;41.10;;;;;;;1.79;86.12;99601.35;130526;1253;107708;-75
2024/01/13 13:50:34;;;;;;;448.30;192.00;;;;;;;1.77;86.16;99599.15;130587;1253;107511;-75